createdAt,value
2023-05-20T00:00:06.695Z,51.80
2023-05-20T00:03:32.910Z,51.80
2023-05-20T00:06:56.977Z,52.00
2023-05-20T00:10:21.595Z,52.00
2023-05-20T00:13:45.384Z,52.00
2023-05-20T00:17:09.577Z,52.20
2023-05-20T00:20:35.446Z,52.30
2023-05-20T00:23:59.852Z,52.40
2023-05-20T00:27:24.192Z,52.30
2023-05-20T00:30:47.753Z,52.40
2023-05-20T00:34:11.539Z,52.40
2023-05-20T00:37:36.535Z,52.50
2023-05-20T00:41:00.421Z,52.60
2023-05-20T00:44:26.661Z,52.60
2023-05-20T00:47:50.551Z,52.70
2023-05-20T00:51:15.627Z,52.80
2023-05-20T00:54:41.699Z,52.80
2023-05-20T00:58:05.739Z,52.80
2023-05-20T01:01:30.049Z,52.80
2023-05-20T01:04:56.570Z,52.90
2023-05-20T01:08:20.306Z,53.00
2023-05-20T01:11:53.884Z,52.90
2023-05-20T01:15:19.347Z,53.40
2023-05-20T01:18:44.679Z,53.20
2023-05-20T01:22:12.555Z,53.20
2023-05-20T01:25:37.518Z,53.30
2023-05-20T01:29:04.330Z,53.20
2023-05-20T01:32:35.973Z,53.40
2023-05-20T01:36:00.937Z,53.60
2023-05-20T01:39:26.521Z,53.50
2023-05-20T01:42:53.494Z,53.60
2023-05-20T01:46:17.511Z,53.70
2023-05-20T01:49:41.492Z,53.60
2023-05-20T01:53:05.899Z,53.60
2023-05-20T01:56:29.398Z,53.70
2023-05-20T01:59:54.466Z,53.70
2023-05-20T02:03:18.990Z,53.80
2023-05-20T02:06:42.613Z,53.70
2023-05-20T02:10:07.892Z,53.70
2023-05-20T02:13:31.531Z,53.80
2023-05-20T02:16:56.585Z,53.70
2023-05-20T02:20:20.228Z,53.70
2023-05-20T02:23:43.778Z,53.60
2023-05-20T02:27:07.605Z,53.60
2023-05-20T02:30:31.278Z,53.60
2023-05-20T02:33:56.201Z,53.50
2023-05-20T02:37:20.189Z,53.70
2023-05-20T02:40:45.813Z,53.90
2023-05-20T02:44:09.460Z,54.00
2023-05-20T02:47:33.066Z,54.10
2023-05-20T02:50:58.064Z,54.10
2023-05-20T02:54:21.669Z,54.30
2023-05-20T02:57:45.309Z,54.80
2023-05-20T03:01:08.912Z,54.70
2023-05-20T03:04:33.763Z,54.40
2023-05-20T03:07:58.755Z,54.50
2023-05-20T03:11:24.362Z,54.60
2023-05-20T03:14:47.977Z,54.60
2023-05-20T03:18:12.498Z,54.60
2023-05-20T03:21:36.135Z,54.70
2023-05-20T03:25:02.390Z,54.80
2023-05-20T03:28:26.616Z,55.00
2023-05-20T03:31:50.627Z,55.00
2023-05-20T03:35:14.492Z,55.00
2023-05-20T03:38:38.223Z,54.80
2023-05-20T03:42:03.261Z,54.90
2023-05-20T03:45:27.281Z,55.00
2023-05-20T03:49:02.632Z,54.80
2023-05-20T03:52:27.425Z,55.00
2023-05-20T03:55:51.046Z,55.00
2023-05-20T03:59:16.346Z,55.30
2023-05-20T04:02:40.051Z,55.50
2023-05-20T04:06:03.829Z,55.70
2023-05-20T04:09:28.699Z,55.80
2023-05-20T04:12:52.436Z,56.00
2023-05-20T04:16:18.492Z,56.10
2023-05-20T04:19:42.691Z,56.20
2023-05-20T04:23:06.461Z,56.20
2023-05-20T04:26:30.410Z,56.30
2023-05-20T04:29:55.035Z,56.30
2023-05-20T04:33:20.195Z,56.40
2023-05-20T04:36:45.686Z,56.50
2023-05-20T04:40:12.512Z,56.50
2023-05-20T04:43:38.926Z,56.70
2023-05-20T04:47:02.746Z,56.70
2023-05-20T04:50:28.507Z,56.90
2023-05-20T04:53:52.128Z,57.80
2023-05-20T04:57:15.674Z,58.50
2023-05-20T05:00:39.349Z,58.40
2023-05-20T05:04:03.680Z,58.00
2023-05-20T05:07:28.790Z,57.20
2023-05-20T05:10:52.368Z,57.00
2023-05-20T05:14:17.824Z,56.70
2023-05-20T05:17:42.133Z,56.70
2023-05-20T05:21:07.690Z,56.60
2023-05-20T05:24:33.983Z,56.70
2023-05-20T05:27:57.761Z,56.60
2023-05-20T05:31:21.533Z,56.60
2023-05-20T05:34:45.256Z,56.60
2023-05-20T05:38:08.842Z,56.90
2023-05-20T05:41:35.580Z,56.90
2023-05-20T05:44:59.230Z,57.30
2023-05-20T05:48:23.051Z,57.40
2023-05-20T05:51:46.820Z,57.60
2023-05-20T05:55:13.063Z,57.40
2023-05-20T05:58:38.022Z,57.20
2023-05-20T06:02:03.302Z,57.20
2023-05-20T06:05:29.268Z,57.40
2023-05-20T06:08:53.759Z,57.40
2023-05-20T06:12:17.772Z,57.10
2023-05-20T06:15:42.971Z,56.90
2023-05-20T06:19:09.173Z,56.90
2023-05-20T06:22:33.052Z,57.10
2023-05-20T06:26:00.166Z,57.20
2023-05-20T06:29:24.901Z,57.40
2023-05-20T06:32:50.129Z,57.40
2023-05-20T06:36:15.074Z,57.90
2023-05-20T06:39:38.779Z,57.80
2023-05-20T06:43:02.365Z,57.70
2023-05-20T06:46:44.873Z,57.30
2023-05-20T06:50:14.698Z,57.00
2023-05-20T06:53:38.457Z,57.20
2023-05-20T06:57:02.247Z,59.00
2023-05-20T07:00:26.056Z,58.40
2023-05-20T07:03:50.753Z,56.90
2023-05-20T07:07:17.483Z,55.70
2023-05-20T07:10:42.280Z,54.90
2023-05-20T07:14:06.300Z,54.60
2023-05-20T07:17:30.285Z,55.10
2023-05-20T07:20:53.983Z,54.90
2023-05-20T07:24:45.522Z,54.70
2023-05-20T07:28:09.112Z,54.00
2023-05-20T07:31:33.077Z,54.10
2023-05-20T07:34:56.892Z,55.40
2023-05-20T07:38:20.503Z,55.40
2023-05-20T07:41:49.872Z,54.80
2023-05-20T07:45:13.853Z,54.40
2023-05-20T07:48:37.593Z,54.40
2023-05-20T07:52:03.008Z,54.30
2023-05-20T07:55:27.462Z,54.20
2023-05-20T07:58:58.254Z,54.00
2023-05-20T08:02:24.365Z,53.70
2023-05-20T08:05:48.883Z,53.50
2023-05-20T08:09:12.707Z,54.40
2023-05-20T08:12:42.132Z,54.70
2023-05-20T08:16:07.978Z,54.60
2023-05-20T08:19:31.989Z,54.20
2023-05-20T08:22:56.173Z,53.70
2023-05-20T08:26:21.947Z,53.10
2023-05-20T08:29:47.269Z,52.80
2023-05-20T08:33:13.574Z,52.60
2023-05-20T08:36:37.296Z,52.60
2023-05-20T08:40:01.502Z,52.90
2023-05-20T08:43:26.108Z,53.30
2023-05-20T08:46:51.746Z,53.70
2023-05-20T08:50:18.402Z,54.30
2023-05-20T08:53:42.043Z,54.40
2023-05-20T08:57:06.703Z,54.50
2023-05-20T09:00:30.678Z,55.10
2023-05-20T09:03:54.392Z,55.60
2023-05-20T09:07:29.456Z,56.10
2023-05-20T09:10:54.373Z,56.80
2023-05-20T09:14:17.983Z,56.80
2023-05-20T09:17:41.749Z,55.60
2023-05-20T09:21:07.882Z,55.70
2023-05-20T09:24:33.031Z,55.00
2023-05-20T09:27:57.526Z,54.80
2023-05-20T09:31:22.366Z,54.10
2023-05-20T09:34:48.685Z,53.10
2023-05-20T09:38:14.823Z,52.10
2023-05-20T09:41:57.283Z,51.70
2023-05-20T09:45:22.101Z,51.10
2023-05-20T09:48:46.526Z,51.20
2023-05-20T14:24:12.457Z,45.50
2023-05-20T14:27:36.202Z,45.90
2023-05-20T14:30:59.837Z,45.70
2023-05-20T14:34:23.615Z,45.30
2023-05-20T14:37:47.384Z,44.90
2023-05-20T14:41:12.396Z,44.60
2023-05-20T14:44:35.948Z,44.60
2023-05-20T14:47:59.586Z,44.40
2023-05-20T14:51:23.206Z,44.10
2023-05-20T14:54:46.828Z,44.00
2023-05-20T14:58:11.755Z,43.90
2023-05-20T15:01:35.673Z,43.70
2023-05-20T15:04:59.216Z,43.80
2023-05-20T15:08:23.229Z,43.60
2023-05-20T15:11:48.267Z,43.40
2023-05-20T15:15:13.424Z,43.50
2023-05-20T15:18:37.136Z,43.40
2023-05-20T15:22:00.745Z,43.40
2023-05-20T15:25:25.430Z,43.40
2023-05-20T15:28:49.057Z,43.30
2023-05-20T15:32:13.939Z,43.40
2023-05-20T15:35:37.618Z,43.30
2023-05-20T15:39:01.291Z,43.30
2023-05-20T15:42:25.544Z,43.30
2023-05-20T15:45:49.190Z,43.20
2023-05-20T15:49:14.293Z,43.40
2023-05-20T15:52:38.690Z,43.50
2023-05-20T15:56:02.445Z,43.60
2023-05-20T15:59:26.772Z,43.70
2023-05-20T16:02:50.843Z,43.70
2023-05-20T16:06:16.445Z,43.60
2023-05-20T16:09:40.028Z,43.70
2023-05-20T16:13:03.697Z,43.70
2023-05-20T16:16:27.576Z,43.70
2023-05-20T16:19:51.376Z,43.70
2023-05-20T16:23:16.792Z,43.70
2023-05-20T16:26:40.880Z,43.70
2023-05-20T16:30:07.961Z,43.80
2023-05-20T16:33:31.544Z,43.70
2023-05-20T16:36:55.145Z,43.70
2023-05-20T16:40:20.136Z,43.70
2023-05-20T16:43:43.662Z,43.70
2023-05-20T16:47:08.807Z,43.70
2023-05-20T16:50:32.775Z,43.70
2023-05-20T16:53:56.584Z,43.60
2023-05-20T16:57:21.918Z,43.60
2023-05-20T17:00:45.412Z,43.70
2023-05-20T17:04:09.169Z,43.70
2023-05-20T17:07:33.522Z,43.80
2023-05-20T17:10:57.382Z,43.80
2023-05-20T17:14:22.344Z,43.90
2023-05-20T17:17:45.987Z,43.90
2023-05-20T17:21:09.537Z,44.00
2023-05-20T17:24:34.076Z,44.10
2023-05-20T17:27:57.791Z,44.30
2023-05-20T17:31:22.716Z,44.40
2023-05-20T17:34:46.305Z,44.60
2023-05-20T17:38:09.762Z,44.60
2023-05-20T17:41:33.244Z,44.70
2023-05-20T17:44:56.767Z,44.90
2023-05-20T17:48:21.603Z,45.00
2023-05-20T17:51:46.128Z,45.30
2023-05-20T17:55:10.338Z,45.40
2023-05-20T17:58:33.880Z,45.50
2023-05-20T18:01:57.639Z,45.60
2023-05-20T18:05:22.550Z,45.60
2023-05-20T18:08:46.075Z,45.80
2023-05-20T18:12:09.986Z,45.80
2023-05-20T18:15:33.471Z,46.00
2023-05-20T18:18:58.306Z,46.00
2023-05-20T18:22:23.294Z,46.20
2023-05-20T18:25:46.777Z,46.20
2023-05-20T18:29:12.255Z,46.20
2023-05-20T18:32:36.517Z,46.50
2023-05-20T18:36:00.229Z,46.50
2023-05-20T18:39:25.060Z,46.50
2023-05-20T18:42:48.619Z,46.70
2023-05-20T18:46:12.169Z,46.80
2023-05-20T18:49:35.648Z,46.80
2023-05-20T18:52:59.427Z,46.90
2023-05-20T18:56:25.073Z,47.10
2023-05-20T18:59:48.748Z,47.30
2023-05-20T19:03:12.393Z,47.20
2023-05-20T19:06:37.538Z,47.30
2023-05-20T19:10:01.987Z,47.50
2023-05-20T19:13:27.194Z,47.70
2023-05-20T19:16:50.873Z,47.80
2023-05-20T19:20:14.672Z,47.90
2023-05-20T19:23:38.266Z,48.10
2023-05-20T19:27:02.666Z,48.20
2023-05-20T19:30:27.610Z,48.40
2023-05-20T19:33:51.244Z,48.60
2023-05-20T19:37:15.025Z,48.50
2023-05-20T19:40:38.571Z,48.70
2023-05-20T19:44:03.193Z,48.80
2023-05-20T19:47:28.241Z,49.00
2023-05-20T19:50:51.888Z,49.00
2023-05-20T19:54:15.782Z,49.10
2023-05-20T19:57:39.270Z,49.40
2023-05-20T20:01:04.424Z,49.50
2023-05-20T20:04:29.454Z,49.50
2023-05-20T20:07:53.215Z,49.80
2023-05-20T20:11:16.817Z,49.90
2023-05-20T20:14:40.431Z,49.80
2023-05-20T20:18:04.933Z,50.00
2023-05-20T20:21:29.861Z,50.90
2023-05-20T20:24:53.760Z,50.30
2023-05-20T20:28:17.551Z,50.30
2023-05-20T20:31:41.261Z,50.60
2023-05-20T20:35:06.108Z,50.60
2023-05-20T20:38:31.383Z,50.60
2023-05-20T20:41:54.969Z,50.70
2023-05-20T20:45:22.662Z,50.90
2023-05-20T20:48:46.878Z,51.00
2023-05-20T20:52:10.827Z,50.90
2023-05-20T20:55:35.947Z,51.10
2023-05-20T20:59:00.402Z,51.30
2023-05-20T21:02:23.903Z,51.20
2023-05-20T21:05:48.542Z,51.30
2023-05-20T21:09:11.984Z,51.40
2023-05-20T21:12:36.946Z,51.50
2023-05-20T21:16:00.569Z,51.60
2023-05-20T21:19:24.243Z,51.80
2023-05-20T21:22:48.169Z,51.90
2023-05-20T21:26:11.664Z,52.00
2023-05-20T21:29:38.428Z,52.00
2023-05-20T21:33:03.602Z,52.10
2023-05-20T21:36:27.298Z,52.00
2023-05-20T21:39:50.945Z,52.00
2023-05-20T21:43:14.787Z,52.10
2023-05-20T21:46:40.100Z,52.20
2023-05-20T21:50:04.081Z,52.50
2023-05-20T21:53:27.814Z,52.30
2023-05-20T21:56:51.588Z,52.30
2023-05-20T22:00:18.510Z,52.70
2023-05-20T22:03:48.779Z,52.60
2023-05-20T22:07:14.054Z,52.80
2023-05-20T22:10:37.632Z,52.80
2023-05-20T22:14:01.231Z,53.00
2023-05-20T22:17:25.050Z,53.00
2023-05-20T22:20:50.358Z,51.20
2023-05-20T22:24:14.259Z,53.50
2023-05-20T22:27:38.677Z,53.50
2023-05-20T22:31:02.441Z,53.50
2023-05-20T22:34:26.036Z,53.70
2023-05-20T22:37:50.998Z,53.70
2023-05-20T22:41:14.551Z,53.80
2023-05-20T22:44:38.144Z,53.70
2023-05-20T22:48:01.799Z,53.70
2023-05-20T22:51:26.001Z,53.80
2023-05-20T22:54:51.038Z,53.90
2023-05-20T22:58:14.571Z,54.10
2023-05-20T23:01:38.230Z,53.90
2023-05-20T23:05:03.758Z,53.90
2023-05-20T23:08:27.384Z,54.10
2023-05-20T23:11:52.693Z,54.00
2023-05-20T23:15:16.614Z,54.10
2023-05-20T23:18:40.385Z,54.20
2023-05-20T23:22:04.047Z,54.30
2023-05-20T23:25:27.712Z,54.50
2023-05-20T23:28:52.692Z,54.50
2023-05-20T23:32:16.198Z,54.90
2023-05-20T23:35:39.756Z,54.70
2023-05-20T23:39:04.568Z,54.80
2023-05-20T23:42:28.978Z,54.90
2023-05-20T23:45:54.001Z,54.80
2023-05-20T23:49:18.479Z,55.10
2023-05-20T23:52:42.125Z,55.00
2023-05-20T23:56:07.775Z,55.10
2023-05-20T23:59:31.407Z,55.20
